Time;durP1;ratioP1;P1;durP2;ratioP2;P2;SDS_P1;SDS_P2;PMS_P1;PMS_P2;Temp;Humidity;BMP_temperature;BMP_pressure;BME280_temperature;BME280_humidity;BME280_pressure;Samples;Min_cycle;Max_cycle;Signal;HPM_P1;HPM_P2
2021/07/21 00:00:01;;;;;;;9.48;7.53;;;;;;;;;;4982672;28;20035;-77
2021/07/21 00:02:27;;;;;;;8.63;6.90;;;;;;;;;;5007007;28;20018;-78
2021/07/21 00:04:53;;;;;;;8.68;7.10;;;;;;;;;;5015266;28;20022;-78
2021/07/21 00:07:19;;;;;;;8.18;6.57;;;;;;;;;;4998189;28;20030;-79
2021/07/21 00:09:45;;;;;;;7.15;6.43;;;;;;;;;;4998418;28;20065;-79
2021/07/21 00:14:56;;;;;;;8.57;6.93;;;;;;;;;;4998910;28;20043;-79
2021/07/21 00:17:26;;;;;;;7.65;6.32;;;;;;;;;;4982084;28;20086;-79
2021/07/21 00:20:08;;;;;;;6.78;6.03;;;;;;;;;;5006855;28;20056;-77
2021/07/21 00:22:35;;;;;;;8.03;6.73;;;;;;;;;;4995137;28;20437;-78
2021/07/21 00:25:01;;;;;;;9.70;6.47;;;;;;;;;;4997388;28;20035;-79
2021/07/21 00:27:27;;;;;;;7.25;5.85;;;;;;;;;;4979181;28;20063;-80
2021/07/21 00:29:53;;;;;;;10.23;7.15;;;;;;;;;;4980356;28;20048;-79
2021/07/21 00:32:19;;;;;;;7.50;6.25;;;;;;;;;;4998688;28;20113;-79
2021/07/21 00:34:45;;;;;;;7.43;5.95;;;;;;;;;;5012883;28;20032;-79
2021/07/21 00:37:11;;;;;;;6.68;5.75;;;;;;;;;;4983939;28;20055;-79
2021/07/21 00:39:37;;;;;;;8.25;6.80;;;;;;;;;;5004433;28;20049;-78
2021/07/21 00:42:04;;;;;;;10.75;7.18;;;;;;;;;;4988362;28;20034;-78
2021/07/21 00:44:30;;;;;;;9.73;6.82;;;;;;;;;;5008784;28;20023;-77
2021/07/21 00:46:56;;;;;;;7.25;6.32;;;;;;;;;;5009317;28;20034;-78
2021/07/21 00:49:25;;;;;;;7.50;6.80;;;;;;;;;;5009397;28;20041;-78
2021/07/21 00:51:52;;;;;;;7.20;6.15;;;;;;;;;;5009762;28;20026;-78
2021/07/21 00:54:18;;;;;;;8.05;6.75;;;;;;;;;;5010541;28;20126;-78
2021/07/21 00:56:44;;;;;;;10.15;7.40;;;;;;;;;;5003986;28;20030;-79
2021/07/21 00:59:10;;;;;;;9.18;7.57;;;;;;;;;;4998962;28;20033;-80
2021/07/21 01:01:36;;;;;;;9.63;8.07;;;;;;;;;;5004375;28;20045;-80
2021/07/21 01:04:05;;;;;;;8.13;6.90;;;;;;;;;;5009901;28;20029;-80
2021/07/21 01:06:31;;;;;;;8.52;6.82;;;;;;;;;;5007440;28;20030;-80
2021/07/21 01:08:58;;;;;;;8.30;6.15;;;;;;;;;;4998860;28;20086;-78
2021/07/21 01:11:24;;;;;;;8.48;6.97;;;;;;;;;;4996762;28;20494;-79
2021/07/21 01:13:53;;;;;;;7.85;6.45;;;;;;;;;;4979478;28;20028;-77
2021/07/21 01:16:22;;;;;;;10.45;7.13;;;;;;;;;;4988575;28;20037;-78
2021/07/21 01:18:54;;;;;;;7.55;6.65;;;;;;;;;;4996665;28;20014;-79
2021/07/21 01:21:35;;;;;;;9.73;6.80;;;;;;;;;;4979834;28;20045;-79
2021/07/21 01:24:19;;;;;;;7.50;5.95;;;;;;;;;;4996566;28;20097;-78
2021/07/21 01:26:59;;;;;;;7.65;5.97;;;;;;;;;;5000081;28;20026;-79
2021/07/21 01:29:27;;;;;;;8.35;6.55;;;;;;;;;;4996312;28;20527;-78
2021/07/21 01:31:55;;;;;;;9.63;7.53;;;;;;;;;;4987140;28;20041;-79
2021/07/21 01:34:22;;;;;;;9.13;6.35;;;;;;;;;;5000841;28;20037;-78
2021/07/21 01:36:52;;;;;;;8.05;6.22;;;;;;;;;;4990507;28;20368;-79
2021/07/21 01:39:21;;;;;;;7.18;5.97;;;;;;;;;;4996382;28;20073;-79
2021/07/21 01:41:54;;;;;;;9.65;7.15;;;;;;;;;;4996349;28;20094;-79
2021/07/21 01:44:21;;;;;;;9.27;7.00;;;;;;;;;;4979024;28;20065;-79
2021/07/21 01:46:52;;;;;;;7.18;5.82;;;;;;;;;;4995914;28;20045;-79
2021/07/21 01:49:20;;;;;;;8.20;6.65;;;;;;;;;;4996173;28;20112;-79
2021/07/21 01:51:46;;;;;;;9.88;7.90;;;;;;;;;;4997361;28;20093;-79
2021/07/21 01:54:13;;;;;;;10.10;7.30;;;;;;;;;;4996963;28;20608;-79
2021/07/21 01:56:40;;;;;;;10.80;7.57;;;;;;;;;;4999569;28;20042;-78
2021/07/21 01:59:07;;;;;;;10.35;8.40;;;;;;;;;;5001080;28;20527;-79
2021/07/21 02:01:33;;;;;;;11.68;8.70;;;;;;;;;;5005800;28;20451;-79
2021/07/21 02:04:00;;;;;;;10.05;7.55;;;;;;;;;;5011906;28;20044;-79
2021/07/21 02:06:27;;;;;;;10.82;7.63;;;;;;;;;;5009847;28;20027;-79
2021/07/21 02:08:55;;;;;;;9.85;7.63;;;;;;;;;;4985105;28;20048;-79
2021/07/21 02:11:22;;;;;;;9.98;7.72;;;;;;;;;;5002017;28;20483;-80
2021/07/21 02:13:48;;;;;;;10.90;8.40;;;;;;;;;;4983329;28;20030;-80
2021/07/21 02:16:15;;;;;;;9.88;8.23;;;;;;;;;;5001086;28;20134;-79
2021/07/21 02:18:41;;;;;;;10.13;7.93;;;;;;;;;;4983570;28;20034;-79
2021/07/21 02:21:08;;;;;;;9.40;7.47;;;;;;;;;;4983120;28;20081;-80
2021/07/21 02:23:34;;;;;;;10.18;7.90;;;;;;;;;;5000324;28;20034;-79
2021/07/21 02:26:01;;;;;;;9.48;7.70;;;;;;;;;;5001366;28;20077;-80
2021/07/21 02:28:29;;;;;;;10.73;7.72;;;;;;;;;;4982831;28;20030;-79
2021/07/21 02:30:56;;;;;;;9.30;7.10;;;;;;;;;;5001698;28;20105;-79
2021/07/21 02:33:31;;;;;;;10.38;7.78;;;;;;;;;;5025464;28;20097;-77
2021/07/21 02:35:57;;;;;;;9.60;8.27;;;;;;;;;;5006607;28;20041;-77
2021/07/21 02:38:23;;;;;;;9.80;7.95;;;;;;;;;;4986801;28;20483;-77
2021/07/21 02:40:50;;;;;;;9.77;7.80;;;;;;;;;;5002511;28;20034;-80
2021/07/21 02:43:16;;;;;;;9.93;7.55;;;;;;;;;;5012799;28;20023;-77
2021/07/21 02:45:42;;;;;;;9.90;7.95;;;;;;;;;;5018871;28;20023;-77
2021/07/21 02:48:08;;;;;;;10.00;7.90;;;;;;;;;;5001880;28;20041;-79
2021/07/21 02:50:35;;;;;;;9.32;7.32;;;;;;;;;;4982579;28;20026;-79
2021/07/21 02:53:01;;;;;;;9.38;7.60;;;;;;;;;;5000722;28;20026;-77
2021/07/21 02:55:27;;;;;;;12.40;8.18;;;;;;;;;;5000274;28;20030;-78
2021/07/21 02:58:00;;;;;;;12.90;9.75;;;;;;;;;;4999572;28;20057;-77
2021/07/21 03:00:28;;;;;;;14.82;9.88;;;;;;;;;;4999928;28;20121;-79
2021/07/21 03:02:54;;;;;;;14.18;9.60;;;;;;;;;;4990162;28;20018;-79
2021/07/21 03:05:22;;;;;;;14.10;9.98;;;;;;;;;;4987837;28;20049;-81
2021/07/21 03:07:49;;;;;;;13.82;10.15;;;;;;;;;;4994821;28;20045;-78
2021/07/21 03:10:16;;;;;;;14.45;11.25;;;;;;;;;;5012968;28;20030;-77
2021/07/21 03:12:44;;;;;;;12.45;9.90;;;;;;;;;;5002539;28;20092;-79
2021/07/21 03:15:14;;;;;;;12.75;9.50;;;;;;;;;;4999659;28;20041;-78
2021/07/21 03:17:42;;;;;;;13.15;10.23;;;;;;;;;;4999347;28;20042;-79
2021/07/21 03:20:09;;;;;;;15.85;10.10;;;;;;;;;;4999869;28;20022;-79
2021/07/21 03:22:36;;;;;;;13.32;10.07;;;;;;;;;;5003069;28;20411;-79
2021/07/21 03:25:04;;;;;;;16.98;12.00;;;;;;;;;;5009911;28;20117;-79
2021/07/21 03:27:30;;;;;;;13.80;10.00;;;;;;;;;;5006894;28;20049;-79
2021/07/21 03:29:56;;;;;;;15.43;10.80;;;;;;;;;;5005476;28;20466;-80
2021/07/21 03:32:24;;;;;;;14.35;10.52;;;;;;;;;;5008900;28;20377;-79
2021/07/21 03:34:51;;;;;;;11.90;9.35;;;;;;;;;;4993666;28;20496;-79
2021/07/21 03:37:18;;;;;;;16.05;10.93;;;;;;;;;;4999870;28;20056;-80
2021/07/21 03:39:46;;;;;;;15.73;10.68;;;;;;;;;;4997450;28;20023;-79
2021/07/21 03:42:13;;;;;;;14.65;10.20;;;;;;;;;;4999936;28;20329;-80
2021/07/21 03:44:39;;;;;;;17.58;10.52;;;;;;;;;;4997601;28;20117;-80
2021/07/21 03:47:05;;;;;;;15.82;11.52;;;;;;;;;;4998713;28;20042;-80
2021/07/21 03:49:32;;;;;;;17.90;12.05;;;;;;;;;;4999600;28;20053;-80
2021/07/21 03:51:58;;;;;;;14.43;10.52;;;;;;;;;;4999345;28;20066;-80
2021/07/21 03:54:26;;;;;;;11.93;9.60;;;;;;;;;;4999166;28;20035;-80
2021/07/21 03:56:52;;;;;;;11.70;9.32;;;;;;;;;;4999175;28;20030;-80
2021/07/21 03:59:20;;;;;;;11.82;8.95;;;;;;;;;;4998483;28;20027;-79
2021/07/21 04:01:47;;;;;;;10.98;8.95;;;;;;;;;;5005847;28;20387;-80
2021/07/21 04:04:15;;;;;;;10.65;7.97;;;;;;;;;;5016829;28;20054;-78
2021/07/21 04:06:42;;;;;;;9.80;8.10;;;;;;;;;;5011014;28;20086;-79
2021/07/21 04:09:11;;;;;;;11.63;8.98;;;;;;;;;;5000986;28;20113;-80
2021/07/21 04:11:40;;;;;;;12.05;9.13;;;;;;;;;;4984830;28;20058;-80
2021/07/21 04:14:08;;;;;;;11.65;8.77;;;;;;;;;;5000886;28;20129;-79
2021/07/21 04:16:34;;;;;;;11.63;9.40;;;;;;;;;;4983497;28;20109;-78
2021/07/21 04:19:00;;;;;;;12.25;9.40;;;;;;;;;;4998820;28;20026;-79
2021/07/21 04:21:27;;;;;;;11.45;8.45;;;;;;;;;;4998797;28;20042;-78
2021/07/21 04:23:54;;;;;;;10.77;8.00;;;;;;;;;;4998087;28;20041;-78
2021/07/21 04:26:21;;;;;;;11.80;8.63;;;;;;;;;;4995065;28;20145;-78
2021/07/21 04:28:47;;;;;;;11.43;8.85;;;;;;;;;;4977534;28;20618;-78
2021/07/21 04:31:13;;;;;;;9.93;6.80;;;;;;;;;;4997794;28;20105;-78
2021/07/21 04:33:40;;;;;;;8.82;6.93;;;;;;;;;;5006511;28;20492;-78
2021/07/21 04:36:06;;;;;;;10.68;7.70;;;;;;;;;;4990117;28;20049;-78
2021/07/21 04:38:33;;;;;;;11.05;8.05;;;;;;;;;;4999233;28;20041;-77
2021/07/21 04:40:59;;;;;;;14.45;10.68;;;;;;;;;;4997156;28;20031;-78
2021/07/21 04:43:25;;;;;;;18.33;11.65;;;;;;;;;;4997720;28;20022;-78
2021/07/21 04:45:51;;;;;;;15.77;11.32;;;;;;;;;;4998384;28;20125;-78
2021/07/21 04:48:18;;;;;;;14.07;10.55;;;;;;;;;;4996927;28;20062;-77
2021/07/21 04:50:45;;;;;;;13.55;9.48;;;;;;;;;;4997194;28;20033;-78
2021/07/21 04:53:11;;;;;;;12.23;10.05;;;;;;;;;;4999670;28;20086;-79
2021/07/21 04:55:38;;;;;;;15.63;10.52;;;;;;;;;;4999090;28;20035;-80
2021/07/21 04:58:04;;;;;;;15.30;11.15;;;;;;;;;;4982049;28;20085;-79
2021/07/21 05:00:30;;;;;;;17.40;11.68;;;;;;;;;;4998146;28;20023;-79
2021/07/21 05:02:59;;;;;;;16.35;12.38;;;;;;;;;;5003289;28;20447;-78
2021/07/21 05:05:25;;;;;;;20.23;12.68;;;;;;;;;;4998752;28;20047;-78
2021/07/21 05:07:51;;;;;;;17.40;12.70;;;;;;;;;;4987048;28;20030;-79
2021/07/21 05:10:20;;;;;;;15.68;11.38;;;;;;;;;;4995986;28;20026;-78
2021/07/21 05:12:46;;;;;;;16.58;12.35;;;;;;;;;;4994708;28;20030;-78
2021/07/21 05:15:13;;;;;;;19.60;11.90;;;;;;;;;;4981446;28;20129;-78
2021/07/21 05:17:39;;;;;;;17.38;11.93;;;;;;;;;;4968263;28;20116;-78
2021/07/21 05:20:06;;;;;;;17.48;12.00;;;;;;;;;;5004732;28;20026;-78
2021/07/21 05:22:32;;;;;;;13.10;10.43;;;;;;;;;;4994976;28;20392;-79
2021/07/21 05:24:58;;;;;;;13.57;9.73;;;;;;;;;;5006847;28;20136;-79
2021/07/21 05:27:24;;;;;;;13.35;10.55;;;;;;;;;;5015122;28;20025;-79
2021/07/21 05:29:51;;;;;;;13.40;10.20;;;;;;;;;;4979453;28;20483;-79
2021/07/21 05:32:17;;;;;;;12.18;9.25;;;;;;;;;;5000158;28;20028;-79
2021/07/21 05:34:43;;;;;;;12.90;9.85;;;;;;;;;;5002079;28;20026;-79
2021/07/21 05:37:10;;;;;;;11.07;8.75;;;;;;;;;;4982428;28;20019;-79
2021/07/21 05:39:36;;;;;;;8.45;7.53;;;;;;;;;;5008689;28;20021;-79
2021/07/21 05:42:02;;;;;;;7.57;6.82;;;;;;;;;;5022904;28;20076;-79
2021/07/21 05:44:28;;;;;;;8.15;7.07;;;;;;;;;;5018578;28;20393;-77
2021/07/21 05:46:54;;;;;;;9.10;7.60;;;;;;;;;;5015928;28;20029;-78
2021/07/21 05:49:21;;;;;;;7.68;6.88;;;;;;;;;;5018080;28;20094;-79
2021/07/21 05:51:47;;;;;;;7.45;6.65;;;;;;;;;;5009860;28;20029;-77
2021/07/21 05:54:14;;;;;;;8.85;7.55;;;;;;;;;;4996187;28;20049;-80
2021/07/21 05:56:40;;;;;;;7.22;6.53;;;;;;;;;;4997195;28;20023;-80
2021/07/21 05:59:07;;;;;;;8.95;8.05;;;;;;;;;;4996874;28;20121;-79
2021/07/21 06:01:36;;;;;;;8.65;7.70;;;;;;;;;;4995303;28;20018;-79
2021/07/21 06:04:02;;;;;;;10.52;9.30;;;;;;;;;;4989641;28;20054;-79
2021/07/21 06:06:28;;;;;;;15.35;10.73;;;;;;;;;;5003403;28;20056;-81
2021/07/21 06:08:54;;;;;;;12.82;10.25;;;;;;;;;;4997048;28;20447;-79
2021/07/21 06:11:20;;;;;;;11.13;9.65;;;;;;;;;;5011772;28;20031;-79
2021/07/21 06:13:46;;;;;;;9.85;8.82;;;;;;;;;;5002044;28;20042;-80
2021/07/21 06:16:15;;;;;;;9.82;8.73;;;;;;;;;;4995013;28;20032;-78
2021/07/21 06:18:42;;;;;;;10.32;9.15;;;;;;;;;;5013784;28;20502;-78
2021/07/21 06:21:11;;;;;;;7.80;7.05;;;;;;;;;;5013408;28;20531;-78
2021/07/21 06:23:37;;;;;;;9.38;8.48;;;;;;;;;;4997475;28;20113;-79
2021/07/21 06:26:03;;;;;;;9.52;8.35;;;;;;;;;;4998440;28;20061;-80
2021/07/21 06:28:29;;;;;;;10.25;9.00;;;;;;;;;;5016094;28;20030;-78
2021/07/21 06:30:55;;;;;;;11.50;9.05;;;;;;;;;;5010428;28;20132;-79
2021/07/21 06:33:22;;;;;;;9.43;8.40;;;;;;;;;;4995964;28;20049;-79
2021/07/21 06:35:48;;;;;;;8.25;7.45;;;;;;;;;;4997768;28;20041;-79
2021/07/21 06:38:14;;;;;;;11.82;9.95;;;;;;;;;;4997200;28;20029;-78
2021/07/21 06:40:41;;;;;;;13.73;10.90;;;;;;;;;;4996752;28;20033;-79
2021/07/21 06:43:08;;;;;;;11.10;9.43;;;;;;;;;;4999682;28;20368;-79
2021/07/21 06:45:34;;;;;;;9.70;8.70;;;;;;;;;;5000275;28;20046;-78
2021/07/21 06:48:00;;;;;;;9.40;8.48;;;;;;;;;;4981352;28;20037;-79
2021/07/21 06:50:27;;;;;;;8.93;8.13;;;;;;;;;;5000430;28;20026;-78
2021/07/21 06:52:53;;;;;;;11.68;9.57;;;;;;;;;;4985595;28;20030;-78
2021/07/21 06:55:19;;;;;;;9.15;8.25;;;;;;;;;;5003802;28;20037;-77
2021/07/21 06:57:53;;;;;;;9.68;8.70;;;;;;;;;;5001830;28;20037;-79
2021/07/21 07:00:19;;;;;;;12.55;10.13;;;;;;;;;;4982294;28;20023;-80
2021/07/21 07:02:45;;;;;;;11.05;9.80;;;;;;;;;;4992972;28;20034;-79
2021/07/21 07:05:11;;;;;;;9.55;8.55;;;;;;;;;;4987927;28;20027;-79
2021/07/21 07:07:37;;;;;;;9.77;8.38;;;;;;;;;;4983055;28;20065;-78
2021/07/21 07:10:04;;;;;;;13.25;10.32;;;;;;;;;;4999420;28;20079;-79
2021/07/21 07:12:30;;;;;;;10.27;9.10;;;;;;;;;;5000890;28;20037;-81
2021/07/21 07:14:56;;;;;;;13.23;10.77;;;;;;;;;;4985581;28;20054;-81
2021/07/21 07:17:24;;;;;;;13.02;10.50;;;;;;;;;;5001496;28;20530;-81
2021/07/21 07:19:50;;;;;;;11.45;9.13;;;;;;;;;;5000298;28;20018;-81
2021/07/21 07:22:17;;;;;;;11.07;9.85;;;;;;;;;;4984247;28;20118;-80
2021/07/21 07:24:43;;;;;;;10.25;9.05;;;;;;;;;;5001257;28;20026;-81
2021/07/21 07:27:09;;;;;;;13.40;9.70;;;;;;;;;;5001017;28;20031;-82
2021/07/21 07:29:35;;;;;;;12.45;9.20;;;;;;;;;;5000757;28;20164;-82
2021/07/21 07:32:06;;;;;;;11.20;8.90;;;;;;;;;;5011602;28;20026;-82
2021/07/21 07:34:32;;;;;;;10.98;8.90;;;;;;;;;;4998135;28;20061;-80
2021/07/21 07:36:58;;;;;;;12.15;9.73;;;;;;;;;;4986191;28;20041;-81
2021/07/21 07:39:24;;;;;;;11.32;8.90;;;;;;;;;;5002287;28;20037;-81
2021/07/21 07:41:50;;;;;;;13.10;9.82;;;;;;;;;;5002986;28;20081;-81
2021/07/21 07:44:17;;;;;;;15.13;10.27;;;;;;;;;;4984756;28;20058;-81
2021/07/21 07:46:43;;;;;;;11.55;8.90;;;;;;;;;;5001792;28;20034;-81
2021/07/21 07:49:09;;;;;;;11.10;8.60;;;;;;;;;;5003960;28;20030;-82
2021/07/21 07:51:36;;;;;;;13.93;9.10;;;;;;;;;;4991012;28;20034;-83
2021/07/21 07:54:03;;;;;;;13.35;9.43;;;;;;;;;;5006953;28;20034;-83
2021/07/21 07:56:30;;;;;;;12.35;9.48;;;;;;;;;;5004239;28;20023;-82
2021/07/21 07:58:56;;;;;;;11.80;8.63;;;;;;;;;;5003588;28;20058;-81
2021/07/21 08:01:22;;;;;;;11.23;8.95;;;;;;;;;;5006712;28;20020;-81
2021/07/21 08:03:49;;;;;;;12.88;9.32;;;;;;;;;;4997655;28;20137;-82
2021/07/21 08:06:15;;;;;;;13.68;9.57;;;;;;;;;;5003078;28;20038;-84
2021/07/21 08:08:41;;;;;;;14.25;9.48;;;;;;;;;;4984320;28;20113;-81
2021/07/21 08:11:09;;;;;;;11.68;9.10;;;;;;;;;;5001493;28;20060;-81
2021/07/21 08:13:35;;;;;;;12.18;9.10;;;;;;;;;;5009585;28;20082;-82
2021/07/21 08:16:01;;;;;;;14.20;9.32;;;;;;;;;;5006897;28;20089;-81
2021/07/21 08:18:28;;;;;;;13.27;8.88;;;;;;;;;;5001431;28;20034;-81
2021/07/21 08:20:54;;;;;;;12.82;9.38;;;;;;;;;;4993870;28;20027;-80
2021/07/21 08:23:20;;;;;;;12.20;9.73;;;;;;;;;;4973258;28;20158;-81
2021/07/21 08:25:46;;;;;;;12.27;8.20;;;;;;;;;;5012094;28;20100;-82
2021/07/21 08:28:16;;;;;;;14.43;8.98;;;;;;;;;;5026880;28;20026;-80
2021/07/21 08:30:42;;;;;;;13.27;8.32;;;;;;;;;;4992488;28;20042;-82
2021/07/21 08:33:09;;;;;;;13.60;9.32;;;;;;;;;;5026940;28;20049;-81
2021/07/21 08:35:35;;;;;;;16.25;10.23;;;;;;;;;;5034236;28;20034;-79
2021/07/21 08:38:02;;;;;;;12.13;9.18;;;;;;;;;;5001259;28;20479;-80
2021/07/21 08:40:29;;;;;;;10.07;8.32;;;;;;;;;;5005211;28;20022;-80
2021/07/21 08:42:55;;;;;;;10.18;7.80;;;;;;;;;;5002551;28;20034;-82
2021/07/21 08:45:21;;;;;;;12.00;9.27;;;;;;;;;;5002585;28;20022;-81
2021/07/21 08:47:47;;;;;;;13.70;10.07;;;;;;;;;;5001703;28;20030;-81
2021/07/21 08:50:13;;;;;;;12.02;8.77;;;;;;;;;;5001584;28;20041;-80
2021/07/21 08:52:39;;;;;;;13.23;7.93;;;;;;;;;;4996016;28;20062;-81
2021/07/21 08:55:07;;;;;;;12.80;8.73;;;;;;;;;;4983987;28;20045;-80
2021/07/21 08:57:34;;;;;;;12.45;8.10;;;;;;;;;;5003601;28;20057;-80
2021/07/21 09:00:01;;;;;;;12.43;8.27;;;;;;;;;;5022051;28;20049;-80
2021/07/21 09:02:27;;;;;;;11.45;8.93;;;;;;;;;;4989628;28;20113;-82
2021/07/21 09:04:54;;;;;;;11.50;8.55;;;;;;;;;;5016690;28;20053;-81
2021/07/21 09:07:20;;;;;;;11.00;9.02;;;;;;;;;;4985458;28;20049;-81
2021/07/21 09:09:46;;;;;;;10.45;8.95;;;;;;;;;;4974706;28;20034;-81
2021/07/21 09:12:12;;;;;;;13.75;9.15;;;;;;;;;;4987335;28;20058;-81
2021/07/21 09:14:39;;;;;;;12.48;8.80;;;;;;;;;;4984452;28;20026;-81
2021/07/21 09:17:10;;;;;;;11.50;9.68;;;;;;;;;;5001390;28;20057;-81
2021/07/21 09:19:37;;;;;;;12.70;8.90;;;;;;;;;;5000302;28;20086;-80
2021/07/21 09:22:16;;;;;;;9.85;8.43;;;;;;;;;;4999436;28;20022;-81
2021/07/21 09:24:42;;;;;;;11.52;9.32;;;;;;;;;;5002410;28;20038;-80
2021/07/21 09:27:08;;;;;;;11.18;8.30;;;;;;;;;;5001005;28;20101;-80
2021/07/21 09:29:34;;;;;;;12.40;9.02;;;;;;;;;;4981600;28;20361;-81
2021/07/21 09:32:01;;;;;;;13.98;8.32;;;;;;;;;;4989120;28;20113;-81
2021/07/21 09:34:28;;;;;;;12.20;8.88;;;;;;;;;;4994094;28;20040;-79
2021/07/21 09:37:12;;;;;;;9.95;8.30;;;;;;;;;;5000405;28;20443;-81
2021/07/21 09:39:39;;;;;;;10.60;8.25;;;;;;;;;;4999224;28;20033;-81
2021/07/21 09:42:06;;;;;;;12.55;8.57;;;;;;;;;;4999022;28;20027;-81
2021/07/21 09:44:43;;;;;;;13.10;8.90;;;;;;;;;;4981576;28;20026;-82
2021/07/21 09:47:27;;;;;;;10.18;8.27;;;;;;;;;;5008227;28;20026;-81
2021/07/21 09:50:11;;;;;;;10.85;8.68;;;;;;;;;;5004584;28;20030;-80
2021/07/21 09:52:45;;;;;;;11.18;8.70;;;;;;;;;;4998149;28;20030;-79
2021/07/21 09:55:13;;;;;;;13.73;9.27;;;;;;;;;;4997900;28;20105;-81
2021/07/21 09:57:40;;;;;;;11.02;8.40;;;;;;;;;;4998196;28;20108;-82
2021/07/21 10:00:26;;;;;;;12.48;9.20;;;;;;;;;;4980571;28;20475;-81
2021/07/21 10:03:05;;;;;;;11.30;9.60;;;;;;;;;;5006002;28;20066;-82
2021/07/21 10:05:31;;;;;;;13.95;11.18;;;;;;;;;;4981991;28;20018;-80
2021/07/21 10:08:03;;;;;;;11.90;9.50;;;;;;;;;;4983249;28;20042;-81
2021/07/21 10:10:30;;;;;;;12.15;9.35;;;;;;;;;;4980710;28;20054;-81
2021/07/21 10:13:01;;;;;;;11.23;9.18;;;;;;;;;;5000129;28;20022;-82
2021/07/21 10:15:27;;;;;;;14.57;10.27;;;;;;;;;;4999711;28;20118;-81
2021/07/21 10:18:13;;;;;;;12.40;10.13;;;;;;;;;;5002203;28;20093;-80
2021/07/21 10:20:41;;;;;;;10.98;9.02;;;;;;;;;;5003701;28;20042;-82
2021/07/21 10:23:07;;;;;;;12.07;9.35;;;;;;;;;;4986073;28;20123;-81
2021/07/21 10:25:34;;;;;;;10.50;9.27;;;;;;;;;;4989957;28;20040;-80
2021/07/21 10:28:00;;;;;;;9.15;8.25;;;;;;;;;;5008904;28;20054;-81
2021/07/21 10:30:27;;;;;;;12.85;9.85;;;;;;;;;;4991691;28;20649;-79
2021/07/21 10:32:55;;;;;;;10.98;9.82;;;;;;;;;;4999246;28;20084;-81
2021/07/21 10:35:21;;;;;;;12.07;9.60;;;;;;;;;;4982869;28;20034;-82
2021/07/21 10:37:48;;;;;;;15.60;9.85;;;;;;;;;;4984573;28;20058;-80
2021/07/21 10:40:15;;;;;;;12.00;8.70;;;;;;;;;;4985535;28;20077;-82
2021/07/21 10:42:41;;;;;;;10.35;9.25;;;;;;;;;;4983710;28;20033;-80
2021/07/21 10:45:15;;;;;;;12.27;9.75;;;;;;;;;;5002324;28;20042;-80
2021/07/21 10:47:48;;;;;;;12.23;10.25;;;;;;;;;;5004873;28;20034;-80
2021/07/21 10:51:02;;;;;;;15.32;10.38;;;;;;;;;;5006680;28;20069;-81
2021/07/21 10:59:21;;;;;;;11.75;9.63;;;;;;;;;;4981940;28;20109;-80
2021/07/21 11:01:51;;;;;;;14.32;10.32;;;;;;;;;;5005665;28;20041;-81
2021/07/21 11:04:18;;;;;;;13.85;9.50;;;;;;;;;;5004371;28;20522;-81
2021/07/21 11:06:45;;;;;;;12.98;10.43;;;;;;;;;;5002165;28;20026;-81
2021/07/21 11:09:19;;;;;;;17.05;10.38;;;;;;;;;;4983825;28;20049;-80
2021/07/21 11:11:45;;;;;;;14.25;11.15;;;;;;;;;;5001016;28;20029;-80
2021/07/21 11:14:19;;;;;;;12.32;10.40;;;;;;;;;;5000693;28;20032;-80
2021/07/21 11:16:49;;;;;;;13.65;9.93;;;;;;;;;;5003858;28;20396;-82
2021/07/21 11:19:26;;;;;;;13.10;9.38;;;;;;;;;;5002571;28;20022;-81
2021/07/21 11:21:58;;;;;;;11.55;10.25;;;;;;;;;;5001727;28;20053;-81
2021/07/21 11:24:24;;;;;;;12.35;10.43;;;;;;;;;;5001611;28;20034;-81
2021/07/21 11:26:51;;;;;;;11.18;9.48;;;;;;;;;;5017428;28;20039;-80
2021/07/21 11:29:24;;;;;;;13.13;9.75;;;;;;;;;;4989333;28;20030;-80
2021/07/21 11:31:50;;;;;;;12.32;9.95;;;;;;;;;;4997081;28;20022;-81
2021/07/21 11:34:31;;;;;;;12.52;9.30;;;;;;;;;;5008708;28;20057;-80
2021/07/21 11:37:02;;;;;;;12.95;10.95;;;;;;;;;;5007602;28;20050;-80
2021/07/21 11:39:56;;;;;;;11.30;9.57;;;;;;;;;;5003320;28;20042;-81
2021/07/21 11:42:38;;;;;;;16.90;9.07;;;;;;;;;;4984226;28;20080;-80
2021/07/21 11:45:18;;;;;;;15.40;9.82;;;;;;;;;;4964859;28;20475;-79
2021/07/21 11:48:00;;;;;;;11.35;9.68;;;;;;;;;;5001438;28;20049;-80
2021/07/21 11:50:31;;;;;;;11.05;9.48;;;;;;;;;;5000885;28;20034;-80
2021/07/21 11:52:58;;;;;;;11.95;10.45;;;;;;;;;;4969617;28;20034;-80
2021/07/21 11:55:25;;;;;;;13.38;10.85;;;;;;;;;;4979899;28;20031;-80
2021/07/21 11:57:53;;;;;;;14.25;10.30;;;;;;;;;;5009018;28;20054;-80
2021/07/21 12:00:20;;;;;;;12.18;10.52;;;;;;;;;;4997566;28;20117;-79
2021/07/21 12:02:46;;;;;;;11.07;9.55;;;;;;;;;;5007768;28;20023;-79
2021/07/21 12:05:12;;;;;;;10.75;9.40;;;;;;;;;;5020590;28;20383;-80
2021/07/21 12:07:39;;;;;;;10.30;8.88;;;;;;;;;;5018225;28;20033;-82
2021/07/21 12:10:10;;;;;;;10.43;9.35;;;;;;;;;;5002924;28;20054;-78
2021/07/21 12:12:36;;;;;;;11.63;9.38;;;;;;;;;;4984518;28;20575;-79
2021/07/21 12:15:02;;;;;;;18.27;10.55;;;;;;;;;;5003432;28;20053;-82
2021/07/21 12:17:29;;;;;;;13.95;11.05;;;;;;;;;;5005086;28;20022;-80
2021/07/21 12:19:56;;;;;;;13.00;10.80;;;;;;;;;;5004244;28;20101;-81
2021/07/21 12:22:23;;;;;;;11.80;9.73;;;;;;;;;;5005375;28;20031;-80
2021/07/21 12:25:00;;;;;;;16.00;10.43;;;;;;;;;;4999056;28;20033;-80
2021/07/21 12:27:29;;;;;;;13.88;10.45;;;;;;;;;;5024933;28;20029;-81
2021/07/21 12:29:59;;;;;;;12.38;9.82;;;;;;;;;;5025512;28;20037;-81
2021/07/21 12:32:25;;;;;;;13.02;10.23;;;;;;;;;;4996891;28;20317;-81
2021/07/21 12:34:52;;;;;;;12.60;10.65;;;;;;;;;;5022116;28;20034;-82
2021/07/21 12:37:20;;;;;;;12.23;10.20;;;;;;;;;;5024981;28;20022;-80
2021/07/21 12:39:47;;;;;;;14.48;10.45;;;;;;;;;;5000695;28;20033;-80
2021/07/21 12:42:17;;;;;;;11.00;9.82;;;;;;;;;;5000333;28;20052;-80
2021/07/21 12:44:45;;;;;;;17.63;11.63;;;;;;;;;;4986275;28;20082;-80
2021/07/21 12:47:12;;;;;;;12.27;10.50;;;;;;;;;;5002579;28;20040;-81
2021/07/21 12:49:39;;;;;;;14.15;11.38;;;;;;;;;;5010875;28;20022;-79
2021/07/21 12:52:06;;;;;;;11.93;10.10;;;;;;;;;;5004898;28;20479;-80
2021/07/21 12:54:33;;;;;;;12.00;9.98;;;;;;;;;;5007780;28;20109;-80
2021/07/21 12:56:59;;;;;;;10.63;9.52;;;;;;;;;;5014537;28;20030;-79
2021/07/21 12:59:35;;;;;;;12.13;10.00;;;;;;;;;;5004225;28;20105;-80
2021/07/21 13:02:05;;;;;;;14.95;10.68;;;;;;;;;;5011351;28;20027;-80
2021/07/21 13:04:32;;;;;;;12.90;10.57;;;;;;;;;;4989963;28;20030;-80
2021/07/21 13:07:07;;;;;;;11.95;10.45;;;;;;;;;;5011823;28;20030;-80
2021/07/21 13:09:37;;;;;;;11.80;10.43;;;;;;;;;;5022261;28;20367;-80
2021/07/21 13:12:16;;;;;;;12.40;9.93;;;;;;;;;;5020150;28;20374;-80
2021/07/21 13:14:43;;;;;;;13.90;9.68;;;;;;;;;;5002268;28;20407;-81
2021/07/21 13:17:10;;;;;;;13.95;10.50;;;;;;;;;;4983302;28;20026;-81
2021/07/21 13:19:36;;;;;;;13.70;10.05;;;;;;;;;;4982325;28;20034;-81
2021/07/21 13:22:02;;;;;;;10.93;9.80;;;;;;;;;;5001013;28;20090;-81
2021/07/21 13:24:29;;;;;;;12.43;9.82;;;;;;;;;;4999860;28;20045;-81
2021/07/21 13:26:57;;;;;;;13.05;10.35;;;;;;;;;;5000227;28;20117;-79
2021/07/21 13:29:24;;;;;;;12.30;10.38;;;;;;;;;;4999053;28;20033;-80
2021/07/21 13:31:51;;;;;;;12.63;9.55;;;;;;;;;;4981806;28;20101;-81
2021/07/21 13:34:21;;;;;;;11.88;9.45;;;;;;;;;;5014861;28;20140;-81
2021/07/21 13:36:52;;;;;;;12.45;9.80;;;;;;;;;;5019922;28;20061;-80
2021/07/21 13:39:18;;;;;;;12.05;9.88;;;;;;;;;;5019671;28;20025;-80
2021/07/21 13:41:50;;;;;;;11.55;10.00;;;;;;;;;;5019398;28;20030;-80
2021/07/21 13:44:21;;;;;;;11.07;9.88;;;;;;;;;;5001706;28;20026;-80
2021/07/21 13:46:52;;;;;;;13.68;9.98;;;;;;;;;;5019303;28;20394;-79
2021/07/21 13:49:35;;;;;;;12.07;9.65;;;;;;;;;;5014622;28;20412;-81
2021/07/21 13:52:04;;;;;;;11.00;9.65;;;;;;;;;;4989306;28;20016;-79
2021/07/21 13:54:31;;;;;;;10.05;9.05;;;;;;;;;;5012642;28;20054;-79
2021/07/21 13:56:59;;;;;;;10.60;9.38;;;;;;;;;;5014308;28;20035;-79
2021/07/21 13:59:25;;;;;;;13.27;9.50;;;;;;;;;;5013050;28;20030;-81
2021/07/21 14:01:52;;;;;;;11.02;9.18;;;;;;;;;;5022490;28;20025;-80
2021/07/21 14:04:19;;;;;;;11.10;9.75;;;;;;;;;;5006718;28;20042;-81
2021/07/21 14:06:45;;;;;;;15.23;9.52;;;;;;;;;;4999138;28;20074;-81
2021/07/21 14:09:12;;;;;;;13.52;9.82;;;;;;;;;;4999019;28;20022;-81
2021/07/21 14:11:38;;;;;;;13.63;9.95;;;;;;;;;;5015619;28;20038;-80
2021/07/21 14:14:05;;;;;;;10.50;8.68;;;;;;;;;;4997919;28;20036;-80
2021/07/21 14:16:31;;;;;;;11.93;9.23;;;;;;;;;;4997846;28;20046;-81
2021/07/21 14:18:58;;;;;;;11.15;9.70;;;;;;;;;;5015647;28;20088;-81
2021/07/21 14:21:24;;;;;;;11.15;9.55;;;;;;;;;;5016112;28;20025;-80
2021/07/21 14:23:51;;;;;;;11.93;10.05;;;;;;;;;;5013541;28;20042;-80
2021/07/21 14:26:17;;;;;;;9.98;8.98;;;;;;;;;;4995155;28;20014;-79
2021/07/21 14:28:44;;;;;;;12.82;9.45;;;;;;;;;;5007674;28;20030;-83
2021/07/21 14:31:13;;;;;;;11.48;9.95;;;;;;;;;;4993778;28;20093;-80
2021/07/21 14:33:40;;;;;;;11.40;10.15;;;;;;;;;;5019186;28;20026;-80
2021/07/21 14:36:06;;;;;;;17.17;9.48;;;;;;;;;;5011798;28;20049;-80
2021/07/21 14:38:32;;;;;;;10.43;9.32;;;;;;;;;;5001220;28;20117;-80
2021/07/21 14:40:58;;;;;;;10.23;9.23;;;;;;;;;;5019212;28;20034;-79
2021/07/21 14:43:24;;;;;;;10.68;9.57;;;;;;;;;;5024040;28;20034;-82